createdAt,value
2023-04-16T00:00:56.900Z,102070.0
2023-04-16T00:05:56.903Z,102070.0
2023-04-16T00:10:56.905Z,102080.0
2023-04-16T00:15:56.917Z,102080.0
2023-04-16T00:20:56.903Z,102080.0
2023-04-16T00:25:56.922Z,102070.0
2023-04-16T00:30:56.988Z,102070.0
2023-04-16T00:35:56.912Z,102070.0
2023-04-16T00:40:56.917Z,102060.0
2023-04-16T00:45:56.986Z,102060.0
2023-04-16T00:50:56.918Z,102060.0
2023-04-16T00:55:56.924Z,102060.0
2023-04-16T01:00:56.929Z,102070.0
2023-04-16T01:05:56.934Z,102080.0
2023-04-16T01:10:56.936Z,102070.0
2023-04-16T01:15:56.956Z,102080.0
2023-04-16T01:20:56.956Z,102070.0
2023-04-16T01:25:56.950Z,102070.0
2023-04-16T01:30:56.966Z,102070.0
2023-04-16T01:35:56.962Z,102060.0
2023-04-16T01:40:56.956Z,102070.0
2023-04-16T01:45:56.958Z,102070.0
2023-04-16T01:50:56.958Z,102060.0
2023-04-16T01:55:56.955Z,102070.0
2023-04-16T02:05:56.972Z,102070.0
2023-04-16T02:10:56.981Z,102070.0
2023-04-16T02:15:57.038Z,102070.0
2023-04-16T02:20:56.971Z,102080.0
2023-04-16T02:25:56.974Z,102070.0
2023-04-16T02:30:56.980Z,102070.0
2023-04-16T02:35:56.983Z,102070.0
2023-04-16T02:40:56.996Z,102070.0
2023-04-16T02:45:57.042Z,102080.0
2023-04-16T02:50:56.998Z,102080.0
2023-04-16T02:55:56.995Z,102070.0
2023-04-16T03:00:57.023Z,102070.0
2023-04-16T03:05:56.995Z,102080.0
2023-04-16T03:10:57.001Z,102080.0
2023-04-16T03:15:57.037Z,102080.0
2023-04-16T03:20:57.023Z,102090.0
2023-04-16T03:25:57.007Z,102100.0
2023-04-16T03:30:57.080Z,102090.0
2023-04-16T03:35:57.016Z,102100.0
2023-04-16T03:40:57.028Z,102100.0
2023-04-16T03:45:57.033Z,102100.0
2023-04-16T03:50:57.023Z,102100.0
2023-04-16T03:55:57.028Z,102110.0
2023-04-16T04:00:57.029Z,102100.0
2023-04-16T04:05:57.039Z,102100.0
2023-04-16T04:10:57.034Z,102100.0
2023-04-16T04:15:57.076Z,102110.0
2023-04-16T04:20:57.053Z,102110.0
2023-04-16T04:25:57.058Z,102110.0
2023-04-16T04:30:57.050Z,102110.0
2023-04-16T04:35:57.051Z,102110.0
2023-04-16T04:40:57.049Z,102120.0
2023-04-16T04:45:57.105Z,102120.0
2023-04-16T04:50:57.055Z,102130.0
2023-04-16T04:55:58.660Z,102130.0
2023-04-16T05:00:57.092Z,102130.0
2023-04-16T05:05:57.076Z,102140.0
2023-04-16T05:10:57.063Z,102140.0
2023-04-16T05:15:57.066Z,102140.0
2023-04-16T05:20:57.076Z,102150.0
2023-04-16T05:25:57.078Z,102160.0
2023-04-16T05:30:57.095Z,102150.0
2023-04-16T05:35:57.079Z,102160.0
2023-04-16T05:40:57.093Z,102160.0
2023-04-16T05:45:57.121Z,102160.0
2023-04-16T05:50:57.091Z,102160.0
2023-04-16T05:55:57.094Z,102160.0
2023-04-16T06:00:57.101Z,102170.0
2023-04-16T06:05:57.127Z,102170.0
2023-04-16T06:10:57.118Z,102170.0
2023-04-16T06:15:57.159Z,102180.0
2023-04-16T06:20:57.103Z,102180.0
2023-04-16T06:25:57.118Z,102180.0
2023-04-16T06:30:57.111Z,102180.0
2023-04-16T06:35:57.125Z,102200.0
2023-04-16T06:40:57.127Z,102200.0
2023-04-16T06:45:57.119Z,102220.0
2023-04-16T06:50:57.132Z,102220.0
2023-04-16T06:55:57.149Z,102210.0
2023-04-16T07:00:57.155Z,102220.0
2023-04-16T07:05:57.135Z,102220.0
2023-04-16T07:10:57.138Z,102230.0
2023-04-16T07:15:57.171Z,102240.0
2023-04-16T07:20:57.143Z,102250.0
2023-04-16T07:25:57.162Z,102250.0
2023-04-16T07:30:57.157Z,102240.0
2023-04-16T07:35:57.161Z,102250.0
2023-04-16T07:45:57.181Z,102260.0
2023-04-16T07:50:57.075Z,102270.0
2023-04-16T07:55:57.181Z,102270.0
2023-04-16T08:00:57.168Z,102280.0
2023-04-16T08:05:57.169Z,102290.0
2023-04-16T08:10:57.074Z,102290.0
2023-04-16T08:15:57.115Z,102290.0
2023-04-16T08:20:57.084Z,102300.0
2023-04-16T08:25:57.079Z,102300.0
2023-04-16T08:30:57.143Z,102300.0
2023-04-16T08:35:57.092Z,102300.0
2023-04-16T08:40:57.099Z,102300.0
2023-04-16T08:45:57.100Z,102320.0
2023-04-16T08:50:57.112Z,102320.0
2023-04-16T08:55:57.105Z,102320.0
2023-04-16T09:00:57.107Z,102320.0
2023-04-16T09:05:57.116Z,102330.0
2023-04-16T09:10:57.116Z,102330.0
2023-04-16T09:15:57.269Z,102330.0
2023-04-16T09:20:57.117Z,102340.0
2023-04-16T09:25:57.132Z,102320.0
2023-04-16T09:30:57.124Z,102330.0
2023-04-16T09:35:57.137Z,102340.0
2023-04-16T09:40:57.142Z,102340.0
2023-04-16T09:45:57.196Z,102350.0
2023-04-16T09:55:57.223Z,102350.0
2023-04-16T10:00:57.236Z,102350.0
2023-04-16T10:05:57.161Z,102350.0
2023-04-16T10:10:57.159Z,102350.0
2023-04-16T10:15:57.168Z,102350.0
2023-04-16T10:20:57.172Z,102340.0
2023-04-16T10:25:57.744Z,102350.0
2023-04-16T10:30:57.202Z,102350.0
2023-04-16T10:36:07.005Z,102360.0
2023-04-16T10:40:57.179Z,102350.0
2023-04-16T10:45:57.254Z,102350.0
2023-04-16T10:50:57.188Z,102350.0
2023-04-16T10:55:57.195Z,102350.0
2023-04-16T11:00:57.194Z,102340.0
2023-04-16T11:05:57.210Z,102350.0
2023-04-16T11:10:57.200Z,102340.0
2023-04-16T11:15:57.245Z,102340.0
2023-04-16T11:20:57.206Z,102340.0
2023-04-16T11:25:57.221Z,102340.0
2023-04-16T11:30:57.218Z,102330.0
2023-04-16T11:35:57.211Z,102340.0
2023-04-16T11:40:57.220Z,102340.0
2023-04-16T11:45:57.218Z,102330.0
2023-04-16T11:50:57.225Z,102330.0
2023-04-16T11:55:57.248Z,102340.0
2023-04-16T12:00:57.234Z,102340.0
2023-04-16T12:05:57.239Z,102340.0
2023-04-16T12:10:57.253Z,102360.0
2023-04-16T12:15:57.242Z,102350.0
2023-04-16T12:20:57.269Z,102360.0
2023-04-16T12:25:57.267Z,102370.0
2023-04-16T12:30:57.288Z,102370.0
2023-04-16T12:35:57.288Z,102370.0
2023-04-16T12:40:57.543Z,102370.0
2023-04-16T12:45:57.312Z,102360.0
2023-04-16T12:50:57.262Z,102370.0
2023-04-16T12:55:57.266Z,102360.0
2023-04-16T13:00:57.272Z,102370.0
2023-04-16T13:05:57.276Z,102370.0
2023-04-16T13:10:57.273Z,102360.0
2023-04-16T13:15:57.368Z,102370.0
2023-04-16T13:20:57.282Z,102370.0
2023-04-16T13:25:57.286Z,102370.0
2023-04-16T13:30:57.291Z,102370.0
2023-04-16T13:35:57.287Z,102370.0
2023-04-16T13:40:57.288Z,102370.0
2023-04-16T13:45:57.300Z,102360.0
2023-04-16T13:50:57.304Z,102360.0
2023-04-16T13:55:57.296Z,102370.0
2023-04-16T14:00:57.308Z,102360.0
2023-04-16T14:05:57.314Z,102360.0
2023-04-16T14:10:57.312Z,102360.0
2023-04-16T14:15:57.348Z,102350.0
2023-04-16T14:20:57.316Z,102360.0
2023-04-16T14:25:57.308Z,102360.0
2023-04-16T14:30:57.320Z,102350.0
2023-04-16T14:35:57.328Z,102360.0
2023-04-16T14:40:57.338Z,102360.0
2023-04-16T14:45:57.356Z,102360.0
2023-04-16T14:50:57.347Z,102370.0
2023-04-16T14:55:57.358Z,102360.0
2023-04-16T15:00:57.415Z,102370.0
2023-04-16T15:05:57.334Z,102370.0
2023-04-16T15:10:57.373Z,102370.0
2023-04-16T15:15:57.346Z,102370.0
2023-04-16T15:20:57.344Z,102370.0
2023-04-16T15:25:57.372Z,102370.0
2023-04-16T15:30:57.389Z,102370.0
2023-04-16T15:35:57.368Z,102380.0
2023-04-16T15:40:57.361Z,102390.0
2023-04-16T15:45:57.443Z,102380.0
2023-04-16T15:50:57.359Z,102390.0
2023-04-16T15:55:57.369Z,102380.0
2023-04-16T16:00:57.368Z,102380.0
2023-04-16T16:05:59.347Z,102370.0
2023-04-16T16:10:57.417Z,102370.0
2023-04-16T16:15:57.394Z,102390.0
2023-04-16T16:20:57.380Z,102390.0
2023-04-16T16:25:57.388Z,102390.0
2023-04-16T16:30:57.384Z,102390.0
2023-04-16T16:35:57.385Z,102390.0
2023-04-16T16:40:57.388Z,102400.0
2023-04-16T16:45:57.386Z,102400.0
2023-04-16T16:50:57.391Z,102390.0
2023-04-16T16:55:57.406Z,102400.0
2023-04-16T17:00:57.445Z,102400.0
2023-04-16T17:05:57.411Z,102410.0
2023-04-16T17:15:57.409Z,102400.0
2023-04-16T17:20:57.415Z,102400.0
2023-04-16T17:25:57.411Z,102400.0
2023-04-16T17:30:57.433Z,102400.0
2023-04-16T17:35:57.415Z,102400.0
2023-04-16T17:40:57.439Z,102400.0
2023-04-16T17:45:57.449Z,102410.0
2023-04-16T17:50:57.432Z,102410.0
2023-04-16T17:55:57.428Z,102410.0
2023-04-16T18:00:57.428Z,102420.0
2023-04-16T18:05:57.433Z,102430.0
2023-04-16T18:10:57.476Z,102430.0
2023-04-16T18:15:57.437Z,102430.0
2023-04-16T18:20:57.446Z,102440.0
2023-04-16T18:25:57.437Z,102430.0
2023-04-16T18:30:59.097Z,102430.0
2023-04-16T18:35:57.444Z,102440.0
2023-04-16T18:40:57.463Z,102450.0
2023-04-16T18:45:57.442Z,102440.0
2023-04-16T18:50:57.454Z,102440.0
2023-04-16T18:55:57.455Z,102440.0
2023-04-16T19:00:57.481Z,102450.0
2023-04-16T19:05:57.461Z,102450.0
2023-04-16T19:10:57.459Z,102450.0
2023-04-16T19:15:57.476Z,102450.0
2023-04-16T19:20:57.459Z,102460.0
2023-04-16T19:25:57.468Z,102460.0
2023-04-16T19:30:57.475Z,102460.0
2023-04-16T19:35:57.472Z,102470.0
2023-04-16T19:40:57.503Z,102470.0
2023-04-16T19:45:57.508Z,102480.0
2023-04-16T19:50:57.593Z,102480.0
2023-04-16T19:55:57.600Z,102480.0
2023-04-16T20:00:57.516Z,102470.0
2023-04-16T20:05:57.585Z,102480.0
2023-04-16T20:10:57.594Z,102480.0
2023-04-16T20:15:57.595Z,102490.0
2023-04-16T20:20:57.590Z,102480.0
2023-04-16T20:25:57.494Z,102490.0
2023-04-16T20:30:57.513Z,102490.0
2023-04-16T20:35:57.602Z,102500.0
2023-04-16T20:40:57.606Z,102500.0
2023-04-16T20:45:57.680Z,102500.0
2023-04-16T20:50:57.611Z,102500.0
2023-04-16T20:55:57.616Z,102500.0
2023-04-16T21:00:57.623Z,102500.0
2023-04-16T21:05:57.625Z,102500.0
2023-04-16T21:10:57.619Z,102510.0
2023-04-16T21:15:57.653Z,102520.0
2023-04-16T21:20:57.637Z,102520.0
2023-04-16T21:25:57.629Z,102510.0
2023-04-16T21:30:57.650Z,102510.0
2023-04-16T21:35:57.651Z,102510.0
2023-04-16T21:40:57.633Z,102510.0
2023-04-16T21:45:57.650Z,102510.0
2023-04-16T21:50:57.646Z,102510.0
2023-04-16T22:00:57.661Z,102500.0
2023-04-16T22:05:57.661Z,102510.0
2023-04-16T22:10:57.664Z,102500.0
2023-04-16T22:15:57.743Z,102500.0
2023-04-16T22:20:57.662Z,102500.0
2023-04-16T22:25:57.682Z,102480.0
2023-04-16T22:30:57.667Z,102480.0
2023-04-16T22:35:57.672Z,102490.0
2023-04-16T22:40:57.675Z,102490.0
2023-04-16T22:45:57.720Z,102480.0
2023-04-16T22:50:57.675Z,102490.0
2023-04-16T22:55:57.696Z,102500.0
2023-04-16T23:00:57.736Z,102490.0
2023-04-16T23:05:57.680Z,102490.0
2023-04-16T23:10:57.686Z,102490.0
2023-04-16T23:15:57.741Z,102480.0
2023-04-16T23:20:57.697Z,102480.0
2023-04-16T23:25:57.714Z,102480.0
2023-04-16T23:30:57.707Z,102480.0
2023-04-16T23:35:57.697Z,102480.0
2023-04-16T23:40:57.699Z,102480.0
2023-04-16T23:45:57.745Z,102490.0
2023-04-16T23:50:57.710Z,102490.0
2023-04-16T23:55:57.714Z,102480.0
